sensor_id;sensor_type;location;lat;lon;timestamp;temperature;humidity
58339;DHT22;48278;52.704;6.536;2022-10-04T00:01:24;12.10;99.90
58339;DHT22;48278;52.704;6.536;2022-10-04T00:04:05;12.00;99.90
58339;DHT22;48278;52.704;6.536;2022-10-04T00:06:32;12.00;99.90
58339;DHT22;48278;52.704;6.536;2022-10-04T00:09:14;12.00;99.90
58339;DHT22;48278;52.704;6.536;2022-10-04T00:11:46;12.00;99.90
58339;DHT22;48278;52.704;6.536;2022-10-04T00:14:23;11.90;99.90
58339;DHT22;48278;52.704;6.536;2022-10-04T00:16:50;11.90;99.90
58339;DHT22;48278;52.704;6.536;2022-10-04T00:19:25;11.90;99.90
58339;DHT22;48278;52.704;6.536;2022-10-04T00:24:22;11.90;99.90
58339;DHT22;48278;52.704;6.536;2022-10-04T00:37:12;12.00;99.90
58339;DHT22;48278;52.704;6.536;2022-10-04T00:39:41;12.00;99.90
58339;DHT22;48278;52.704;6.536;2022-10-04T00:42:38;12.00;99.90
58339;DHT22;48278;52.704;6.536;2022-10-04T00:45:17;12.00;99.90
58339;DHT22;48278;52.704;6.536;2022-10-04T00:50:21;12.00;99.90
58339;DHT22;48278;52.704;6.536;2022-10-04T00:52:55;12.00;99.90
58339;DHT22;48278;52.704;6.536;2022-10-04T00:55:33;12.00;99.90
58339;DHT22;48278;52.704;6.536;2022-10-04T00:58:03;12.00;99.90
58339;DHT22;48278;52.704;6.536;2022-10-04T01:00:30;12.10;99.90
58339;DHT22;48278;52.704;6.536;2022-10-04T01:03:05;12.10;99.90
58339;DHT22;48278;52.704;6.536;2022-10-04T01:05:54;12.10;99.90
58339;DHT22;48278;52.704;6.536;2022-10-04T01:08:26;12.10;99.90
58339;DHT22;48278;52.704;6.536;2022-10-04T01:11:18;9.80;99.90
58339;DHT22;48278;52.704;6.536;2022-10-04T01:13:50;12.10;99.90
58339;DHT22;48278;52.704;6.536;2022-10-04T01:18:49;12.10;99.90
58339;DHT22;48278;52.704;6.536;2022-10-04T01:23:46;12.00;99.90
58339;DHT22;48278;52.704;6.536;2022-10-04T01:29:00;12.00;99.90
58339;DHT22;48278;52.704;6.536;2022-10-04T01:31:27;12.00;99.90
58339;DHT22;48278;52.704;6.536;2022-10-04T01:33:54;12.00;99.90
58339;DHT22;48278;52.704;6.536;2022-10-04T01:36:20;12.00;99.90
58339;DHT22;48278;52.704;6.536;2022-10-04T01:38:47;12.00;99.90
58339;DHT22;48278;52.704;6.536;2022-10-04T01:41:15;12.00;99.90
58339;DHT22;48278;52.704;6.536;2022-10-04T01:43:46;12.10;99.90
58339;DHT22;48278;52.704;6.536;2022-10-04T01:46:35;12.00;99.90
58339;DHT22;48278;52.704;6.536;2022-10-04T01:49:05;12.00;99.90
58339;DHT22;48278;52.704;6.536;2022-10-04T01:52:06;12.00;99.90
58339;DHT22;48278;52.704;6.536;2022-10-04T01:54:37;12.00;99.90
58339;DHT22;48278;52.704;6.536;2022-10-04T01:57:14;11.90;99.90
58339;DHT22;48278;52.704;6.536;2022-10-04T01:59:55;11.90;99.90
58339;DHT22;48278;52.704;6.536;2022-10-04T02:05:34;11.90;99.90
58339;DHT22;48278;52.704;6.536;2022-10-04T02:08:06;11.90;99.90
58339;DHT22;48278;52.704;6.536;2022-10-04T02:10:34;11.90;99.90
58339;DHT22;48278;52.704;6.536;2022-10-04T02:13:07;11.80;99.90
58339;DHT22;48278;52.704;6.536;2022-10-04T02:15:35;11.80;99.90
58339;DHT22;48278;52.704;6.536;2022-10-04T02:18:08;11.80;99.90
58339;DHT22;48278;52.704;6.536;2022-10-04T02:20:38;11.70;99.90
58339;DHT22;48278;52.704;6.536;2022-10-04T02:23:05;11.60;99.90
58339;DHT22;48278;52.704;6.536;2022-10-04T02:25:31;11.50;99.90
58339;DHT22;48278;52.704;6.536;2022-10-04T02:27:57;11.40;99.90
58339;DHT22;48278;52.704;6.536;2022-10-04T02:30:23;11.30;99.90
58339;DHT22;48278;52.704;6.536;2022-10-04T02:32:52;11.30;99.90
58339;DHT22;48278;52.704;6.536;2022-10-04T02:38:27;11.20;99.90
58339;DHT22;48278;52.704;6.536;2022-10-04T02:43:38;11.10;99.90
58339;DHT22;48278;52.704;6.536;2022-10-04T02:46:24;11.00;99.90
58339;DHT22;48278;52.704;6.536;2022-10-04T02:48:58;11.00;99.90
58339;DHT22;48278;52.704;6.536;2022-10-04T02:51:41;11.00;99.90
58339;DHT22;48278;52.704;6.536;2022-10-04T02:54:36;10.90;99.90
58339;DHT22;48278;52.704;6.536;2022-10-04T02:57:08;10.90;99.90
58339;DHT22;48278;52.704;6.536;2022-10-04T02:59:38;10.80;99.90
58339;DHT22;48278;52.704;6.536;2022-10-04T03:02:27;10.80;99.90
58339;DHT22;48278;52.704;6.536;2022-10-04T03:04:55;10.80;99.90
58339;DHT22;48278;52.704;6.536;2022-10-04T03:07:23;10.70;99.90
58339;DHT22;48278;52.704;6.536;2022-10-04T03:09:50;10.80;99.90
58339;DHT22;48278;52.704;6.536;2022-10-04T03:12:16;10.70;99.90
58339;DHT22;48278;52.704;6.536;2022-10-04T03:14:42;10.60;99.90
58339;DHT22;48278;52.704;6.536;2022-10-04T03:17:09;10.60;99.90
58339;DHT22;48278;52.704;6.536;2022-10-04T03:19:36;10.60;99.90
58339;DHT22;48278;52.704;6.536;2022-10-04T03:22:10;10.60;99.90
58339;DHT22;48278;52.704;6.536;2022-10-04T03:24:42;10.60;99.90
58339;DHT22;48278;52.704;6.536;2022-10-04T03:27:15;10.60;99.90
58339;DHT22;48278;52.704;6.536;2022-10-04T03:29:44;10.60;99.90
58339;DHT22;48278;52.704;6.536;2022-10-04T03:32:13;10.60;99.90
58339;DHT22;48278;52.704;6.536;2022-10-04T03:34:41;10.60;99.90
58339;DHT22;48278;52.704;6.536;2022-10-04T03:37:14;10.60;99.90
58339;DHT22;48278;52.704;6.536;2022-10-04T03:39:44;10.50;99.90
58339;DHT22;48278;52.704;6.536;2022-10-04T03:42:16;10.60;99.90
58339;DHT22;48278;52.704;6.536;2022-10-04T03:44:44;10.50;99.90
58339;DHT22;48278;52.704;6.536;2022-10-04T03:47:14;10.40;99.90
58339;DHT22;48278;52.704;6.536;2022-10-04T03:49:42;10.40;99.90
58339;DHT22;48278;52.704;6.536;2022-10-04T03:52:26;10.30;99.90
58339;DHT22;48278;52.704;6.536;2022-10-04T03:54:56;10.30;99.90
58339;DHT22;48278;52.704;6.536;2022-10-04T03:57:24;10.20;99.90
58339;DHT22;48278;52.704;6.536;2022-10-04T03:59:50;10.20;99.90
58339;DHT22;48278;52.704;6.536;2022-10-04T04:05:08;10.20;99.90
58339;DHT22;48278;52.704;6.536;2022-10-04T04:07:44;10.10;99.90
58339;DHT22;48278;52.704;6.536;2022-10-04T04:10:21;10.10;99.90
58339;DHT22;48278;52.704;6.536;2022-10-04T04:15:37;10.00;99.90
58339;DHT22;48278;52.704;6.536;2022-10-04T04:20:43;10.00;99.90
58339;DHT22;48278;52.704;6.536;2022-10-04T04:25:39;10.10;99.90
58339;DHT22;48278;52.704;6.536;2022-10-04T04:28:28;9.90;99.90
58339;DHT22;48278;52.704;6.536;2022-10-04T04:31:17;10.30;99.90
58339;DHT22;48278;52.704;6.536;2022-10-04T04:34:04;10.00;99.90
58339;DHT22;48278;52.704;6.536;2022-10-04T04:36:40;9.90;99.90
58339;DHT22;48278;52.704;6.536;2022-10-04T04:39:20;9.80;99.90
58339;DHT22;48278;52.704;6.536;2022-10-04T04:44:39;9.80;99.90
58339;DHT22;48278;52.704;6.536;2022-10-04T04:47:26;9.80;99.90
58339;DHT22;48278;52.704;6.536;2022-10-04T04:49:54;9.80;99.90
58339;DHT22;48278;52.704;6.536;2022-10-04T04:52:25;9.90;99.90
58339;DHT22;48278;52.704;6.536;2022-10-04T04:54:54;10.10;99.90
58339;DHT22;48278;52.704;6.536;2022-10-04T04:57:20;10.00;99.90
58339;DHT22;48278;52.704;6.536;2022-10-04T04:59:53;10.10;99.90
58339;DHT22;48278;52.704;6.536;2022-10-04T05:02:50;9.80;99.90
58339;DHT22;48278;52.704;6.536;2022-10-04T05:05:19;9.70;99.90
58339;DHT22;48278;52.704;6.536;2022-10-04T05:07:46;9.80;99.90
58339;DHT22;48278;52.704;6.536;2022-10-04T05:10:32;9.70;99.90
58339;DHT22;48278;52.704;6.536;2022-10-04T05:13:02;9.80;99.90
58339;DHT22;48278;52.704;6.536;2022-10-04T05:15:37;9.70;99.90
58339;DHT22;48278;52.704;6.536;2022-10-04T05:18:27;9.70;99.90
58339;DHT22;48278;52.704;6.536;2022-10-04T05:20:55;9.70;99.90
58339;DHT22;48278;52.704;6.536;2022-10-04T05:23:21;9.70;99.90
58339;DHT22;48278;52.704;6.536;2022-10-04T05:25:48;9.80;99.90
58339;DHT22;48278;52.704;6.536;2022-10-04T05:28:15;9.70;99.90
58339;DHT22;48278;52.704;6.536;2022-10-04T05:33:46;9.60;99.90
58339;DHT22;48278;52.704;6.536;2022-10-04T05:37:11;9.60;99.90
58339;DHT22;48278;52.704;6.536;2022-10-04T05:39:40;9.60;99.90
58339;DHT22;48278;52.704;6.536;2022-10-04T05:42:20;9.70;99.90
58339;DHT22;48278;52.704;6.536;2022-10-04T05:44:53;9.50;99.90
58339;DHT22;48278;52.704;6.536;2022-10-04T05:47:21;9.50;99.90
58339;DHT22;48278;52.704;6.536;2022-10-04T05:49:52;9.50;99.90
58339;DHT22;48278;52.704;6.536;2022-10-04T05:52:33;9.60;99.90
58339;DHT22;48278;52.704;6.536;2022-10-04T05:55:17;9.60;99.90
58339;DHT22;48278;52.704;6.536;2022-10-04T06:00:19;9.60;99.90
58339;DHT22;48278;52.704;6.536;2022-10-04T06:05:49;9.70;99.90
58339;DHT22;48278;52.704;6.536;2022-10-04T06:11:09;9.80;99.90
58339;DHT22;48278;52.704;6.536;2022-10-04T06:19:49;9.80;99.90
58339;DHT22;48278;52.704;6.536;2022-10-04T06:22:22;9.90;99.90
58339;DHT22;48278;52.704;6.536;2022-10-04T06:24:55;9.90;99.90
58339;DHT22;48278;52.704;6.536;2022-10-04T06:30:16;9.80;99.90
58339;DHT22;48278;52.704;6.536;2022-10-04T06:33:04;9.80;99.90
58339;DHT22;48278;52.704;6.536;2022-10-04T06:40:59;9.80;99.90
58339;DHT22;48278;52.704;6.536;2022-10-04T06:46:16;9.80;99.90
58339;DHT22;48278;52.704;6.536;2022-10-04T07:00:16;10.10;99.90
58339;DHT22;48278;52.704;6.536;2022-10-04T07:03:00;10.20;99.90
58339;DHT22;48278;52.704;6.536;2022-10-04T07:05:39;10.40;99.90
58339;DHT22;48278;52.704;6.536;2022-10-04T07:08:23;10.50;99.90
58339;DHT22;48278;52.704;6.536;2022-10-04T07:21:14;11.10;99.90
58339;DHT22;48278;52.704;6.536;2022-10-04T07:23:55;11.20;99.90
58339;DHT22;48278;52.704;6.536;2022-10-04T07:26:30;11.30;99.90
58339;DHT22;48278;52.704;6.536;2022-10-04T07:29:02;11.40;99.90
58339;DHT22;48278;52.704;6.536;2022-10-04T07:31:48;11.40;99.90
58339;DHT22;48278;52.704;6.536;2022-10-04T07:34:25;11.40;99.90
58339;DHT22;48278;52.704;6.536;2022-10-04T07:36:58;11.40;99.90
58339;DHT22;48278;52.704;6.536;2022-10-04T07:39:45;11.30;99.90
58339;DHT22;48278;52.704;6.536;2022-10-04T07:42:28;11.40;99.90
58339;DHT22;48278;52.704;6.536;2022-10-04T07:47:45;11.40;99.90
58339;DHT22;48278;52.704;6.536;2022-10-04T07:50:34;11.50;99.90
58339;DHT22;48278;52.704;6.536;2022-10-04T07:53:17;11.70;99.90
58339;DHT22;48278;52.704;6.536;2022-10-04T07:56:05;11.80;99.90
58339;DHT22;48278;52.704;6.536;2022-10-04T08:06:38;12.20;99.90
58339;DHT22;48278;52.704;6.536;2022-10-04T08:09:42;12.20;99.90
58339;DHT22;48278;52.704;6.536;2022-10-04T08:12:17;12.20;99.90
58339;DHT22;48278;52.704;6.536;2022-10-04T08:20:24;12.10;99.90
58339;DHT22;48278;52.704;6.536;2022-10-04T08:23:17;12.10;99.90
58339;DHT22;48278;52.704;6.536;2022-10-04T08:38:10;12.50;99.90
58339;DHT22;48278;52.704;6.536;2022-10-04T08:58:15;13.00;99.90
58339;DHT22;48278;52.704;6.536;2022-10-04T09:14:29;13.40;99.90
58339;DHT22;48278;52.704;6.536;2022-10-04T09:22:54;13.70;99.90
58339;DHT22;48278;52.704;6.536;2022-10-04T09:31:26;13.80;99.90
58339;DHT22;48278;52.704;6.536;2022-10-04T09:37:05;14.00;99.90
58339;DHT22;48278;52.704;6.536;2022-10-04T09:42:19;14.10;99.90
58339;DHT22;48278;52.704;6.536;2022-10-04T09:47:44;14.30;99.90
58339;DHT22;48278;52.704;6.536;2022-10-04T09:54:10;14.30;99.90
58339;DHT22;48278;52.704;6.536;2022-10-04T10:08:35;14.60;99.90
58339;DHT22;48278;52.704;6.536;2022-10-04T10:14:59;14.70;99.90
58339;DHT22;48278;52.704;6.536;2022-10-04T10:20:29;14.90;99.90
58339;DHT22;48278;52.704;6.536;2022-10-04T10:23:10;15.10;99.90
58339;DHT22;48278;52.704;6.536;2022-10-04T10:36:49;15.30;99.90
58339;DHT22;48278;52.704;6.536;2022-10-04T10:48:05;15.50;99.90
58339;DHT22;48278;52.704;6.536;2022-10-04T10:53:38;15.60;99.90
58339;DHT22;48278;52.704;6.536;2022-10-04T11:11:30;16.00;99.90
58339;DHT22;48278;52.704;6.536;2022-10-04T11:20:25;16.00;99.90
58339;DHT22;48278;52.704;6.536;2022-10-04T11:28:20;16.00;99.90
58339;DHT22;48278;52.704;6.536;2022-10-04T11:43:03;16.30;99.90
58339;DHT22;48278;52.704;6.536;2022-10-04T11:57:15;16.50;99.90
58339;DHT22;48278;52.704;6.536;2022-10-04T12:05:56;16.70;99.90
58339;DHT22;48278;52.704;6.536;2022-10-04T12:08:52;16.80;99.90
58339;DHT22;48278;52.704;6.536;2022-10-04T12:11:41;16.80;99.90
58339;DHT22;48278;52.704;6.536;2022-10-04T12:32:11;16.70;99.90
58339;DHT22;48278;52.704;6.536;2022-10-04T12:34:37;16.80;99.90
58339;DHT22;48278;52.704;6.536;2022-10-04T12:37:33;16.80;99.90
58339;DHT22;48278;52.704;6.536;2022-10-04T12:43:05;16.90;99.90
58339;DHT22;48278;52.704;6.536;2022-10-04T12:54:09;16.90;99.90
58339;DHT22;48278;52.704;6.536;2022-10-04T12:57:03;16.90;99.90
58339;DHT22;48278;52.704;6.536;2022-10-04T13:05:20;17.10;99.90
58339;DHT22;48278;52.704;6.536;2022-10-04T13:07:58;17.20;99.90
58339;DHT22;48278;52.704;6.536;2022-10-04T13:10:50;17.10;99.90
58339;DHT22;48278;52.704;6.536;2022-10-04T13:16:22;17.10;99.90
58339;DHT22;48278;52.704;6.536;2022-10-04T13:24:30;17.10;99.90
58339;DHT22;48278;52.704;6.536;2022-10-04T13:27:18;17.30;99.90
58339;DHT22;48278;52.704;6.536;2022-10-04T13:30:28;17.40;99.90
58339;DHT22;48278;52.704;6.536;2022-10-04T13:35:33;17.40;99.90
58339;DHT22;48278;52.704;6.536;2022-10-04T13:48:27;17.40;99.90
58339;DHT22;48278;52.704;6.536;2022-10-04T14:00:05;17.50;99.90
58339;DHT22;48278;52.704;6.536;2022-10-04T14:03:01;17.50;99.90
58339;DHT22;48278;52.704;6.536;2022-10-04T14:05:51;17.50;99.90
58339;DHT22;48278;52.704;6.536;2022-10-04T14:16:41;17.40;99.90
58339;DHT22;48278;52.704;6.536;2022-10-04T14:19:21;17.30;99.90
58339;DHT22;48278;52.704;6.536;2022-10-04T14:31:14;17.20;99.90
58339;DHT22;48278;52.704;6.536;2022-10-04T14:39:17;17.40;99.90
58339;DHT22;48278;52.704;6.536;2022-10-04T14:42:10;17.30;99.90
58339;DHT22;48278;52.704;6.536;2022-10-04T14:45:01;17.30;99.90
58339;DHT22;48278;52.704;6.536;2022-10-04T14:51:03;17.10;99.90
58339;DHT22;48278;52.704;6.536;2022-10-04T14:58:50;17.10;99.90
58339;DHT22;48278;52.704;6.536;2022-10-04T15:02:34;17.00;99.90
58339;DHT22;48278;52.704;6.536;2022-10-04T15:07:37;17.10;99.90
58339;DHT22;48278;52.704;6.536;2022-10-04T15:10:26;17.10;99.90
58339;DHT22;48278;52.704;6.536;2022-10-04T15:13:02;16.90;99.90
58339;DHT22;48278;52.704;6.536;2022-10-04T15:15:39;17.10;99.90
58339;DHT22;48278;52.704;6.536;2022-10-04T15:18:45;17.00;99.90
58339;DHT22;48278;52.704;6.536;2022-10-04T15:21:38;17.10;99.90
58339;DHT22;48278;52.704;6.536;2022-10-04T15:24:23;17.00;99.90
58339;DHT22;48278;52.704;6.536;2022-10-04T15:35:32;16.80;99.90
58339;DHT22;48278;52.704;6.536;2022-10-04T15:38:23;16.70;99.90
58339;DHT22;48278;52.704;6.536;2022-10-04T15:43:27;16.60;99.90
58339;DHT22;48278;52.704;6.536;2022-10-04T16:08:13;16.50;99.90
58339;DHT22;48278;52.704;6.536;2022-10-04T16:21:39;16.00;99.90
58339;DHT22;48278;52.704;6.536;2022-10-04T16:37:17;15.50;99.90
58339;DHT22;48278;52.704;6.536;2022-10-04T16:40:02;15.50;99.90
58339;DHT22;48278;52.704;6.536;2022-10-04T16:42:56;15.90;99.90
58339;DHT22;48278;52.704;6.536;2022-10-04T16:56:15;15.30;99.90
58339;DHT22;48278;52.704;6.536;2022-10-04T16:59:02;15.10;99.90
58339;DHT22;48278;52.704;6.536;2022-10-04T17:10:05;15.00;99.90
58339;DHT22;48278;52.704;6.536;2022-10-04T17:16:12;14.90;99.90
58339;DHT22;48278;52.704;6.536;2022-10-04T17:32:26;14.70;99.90
58339;DHT22;48278;52.704;6.536;2022-10-04T17:49:27;14.50;99.90
58339;DHT22;48278;52.704;6.536;2022-10-04T17:52:18;14.60;99.90
58339;DHT22;48278;52.704;6.536;2022-10-04T17:55:18;14.50;99.90
58339;DHT22;48278;52.704;6.536;2022-10-04T17:58:10;14.80;99.90
58339;DHT22;48278;52.704;6.536;2022-10-04T18:03:51;14.70;99.90
58339;DHT22;48278;52.704;6.536;2022-10-04T18:09:25;14.80;99.90
58339;DHT22;48278;52.704;6.536;2022-10-04T18:11:55;14.80;99.90
58339;DHT22;48278;52.704;6.536;2022-10-04T18:17:31;14.80;99.90
58339;DHT22;48278;52.704;6.536;2022-10-04T18:20:25;14.80;99.90
58339;DHT22;48278;52.704;6.536;2022-10-04T18:23:16;14.70;99.90
58339;DHT22;48278;52.704;6.536;2022-10-04T18:25:43;14.70;99.90
58339;DHT22;48278;52.704;6.536;2022-10-04T18:28:18;14.70;99.90
58339;DHT22;48278;52.704;6.536;2022-10-04T18:33:18;14.80;99.90
58339;DHT22;48278;52.704;6.536;2022-10-04T18:36:02;14.80;99.90
58339;DHT22;48278;52.704;6.536;2022-10-04T18:38:34;14.80;99.90
58339;DHT22;48278;52.704;6.536;2022-10-04T18:41:19;14.80;99.90
58339;DHT22;48278;52.704;6.536;2022-10-04T18:44:12;14.80;99.90
58339;DHT22;48278;52.704;6.536;2022-10-04T18:46:40;14.80;99.90
58339;DHT22;48278;52.704;6.536;2022-10-04T18:49:15;14.80;99.90
58339;DHT22;48278;52.704;6.536;2022-10-04T18:57:48;14.80;99.90
58339;DHT22;48278;52.704;6.536;2022-10-04T19:00:42;14.80;99.90
58339;DHT22;48278;52.704;6.536;2022-10-04T19:03:46;14.80;99.90
58339;DHT22;48278;52.704;6.536;2022-10-04T19:12:01;14.90;99.90
58339;DHT22;48278;52.704;6.536;2022-10-04T19:22:33;14.80;99.90
58339;DHT22;48278;52.704;6.536;2022-10-04T19:25:44;14.80;99.90
58339;DHT22;48278;52.704;6.536;2022-10-04T19:28:19;14.80;99.90
58339;DHT22;48278;52.704;6.536;2022-10-04T19:33:47;14.80;99.90
58339;DHT22;48278;52.704;6.536;2022-10-04T19:36:39;15.00;99.90
58339;DHT22;48278;52.704;6.536;2022-10-04T19:39:38;14.90;99.90
58339;DHT22;48278;52.704;6.536;2022-10-04T19:42:14;14.80;99.90
58339;DHT22;48278;52.704;6.536;2022-10-04T19:50:17;14.90;99.90
58339;DHT22;48278;52.704;6.536;2022-10-04T20:03:35;14.90;99.90
58339;DHT22;48278;52.704;6.536;2022-10-04T20:06:01;14.90;99.90
58339;DHT22;48278;52.704;6.536;2022-10-04T20:11:27;14.90;99.90
58339;DHT22;48278;52.704;6.536;2022-10-04T20:17:01;14.90;99.90
58339;DHT22;48278;52.704;6.536;2022-10-04T20:22:25;15.00;99.90
58339;DHT22;48278;52.704;6.536;2022-10-04T20:24:51;15.00;99.90
58339;DHT22;48278;52.704;6.536;2022-10-04T20:30:10;15.10;99.90
58339;DHT22;48278;52.704;6.536;2022-10-04T20:35:09;15.10;99.90
58339;DHT22;48278;52.704;6.536;2022-10-04T20:45:45;15.20;99.90
58339;DHT22;48278;52.704;6.536;2022-10-04T20:48:17;15.30;99.90
58339;DHT22;48278;52.704;6.536;2022-10-04T20:50:44;15.30;99.90
58339;DHT22;48278;52.704;6.536;2022-10-04T20:53:24;15.40;99.90
58339;DHT22;48278;52.704;6.536;2022-10-04T20:55:51;15.40;99.90
58339;DHT22;48278;52.704;6.536;2022-10-04T20:58:33;15.40;99.90
58339;DHT22;48278;52.704;6.536;2022-10-04T21:01:04;15.40;99.90
58339;DHT22;48278;52.704;6.536;2022-10-04T21:03:41;15.40;99.90
58339;DHT22;48278;52.704;6.536;2022-10-04T21:06:10;15.50;99.90
58339;DHT22;48278;52.704;6.536;2022-10-04T21:08:37;15.50;99.90
58339;DHT22;48278;52.704;6.536;2022-10-04T21:11:13;15.50;99.90
58339;DHT22;48278;52.704;6.536;2022-10-04T21:13:59;15.50;99.90
58339;DHT22;48278;52.704;6.536;2022-10-04T21:16:45;15.50;99.90
58339;DHT22;48278;52.704;6.536;2022-10-04T21:19:47;15.50;99.90
58339;DHT22;48278;52.704;6.536;2022-10-04T21:24:42;15.50;99.90
58339;DHT22;48278;52.704;6.536;2022-10-04T21:27:36;15.40;99.90
58339;DHT22;48278;52.704;6.536;2022-10-04T21:30:11;15.40;99.90
58339;DHT22;48278;52.704;6.536;2022-10-04T21:32:37;15.50;99.90
58339;DHT22;48278;52.704;6.536;2022-10-04T21:35:05;15.40;99.90
58339;DHT22;48278;52.704;6.536;2022-10-04T21:37:31;15.40;99.90
58339;DHT22;48278;52.704;6.536;2022-10-04T21:39:57;15.40;99.90
58339;DHT22;48278;52.704;6.536;2022-10-04T21:42:23;15.40;99.90
58339;DHT22;48278;52.704;6.536;2022-10-04T21:44:49;15.30;99.90
58339;DHT22;48278;52.704;6.536;2022-10-04T21:47:15;15.30;99.90
58339;DHT22;48278;52.704;6.536;2022-10-04T21:49:40;15.30;99.90
58339;DHT22;48278;52.704;6.536;2022-10-04T21:52:06;15.30;99.90
58339;DHT22;48278;52.704;6.536;2022-10-04T21:54:33;15.30;99.90
58339;DHT22;48278;52.704;6.536;2022-10-04T21:56:59;15.20;99.90
58339;DHT22;48278;52.704;6.536;2022-10-04T21:59:25;15.20;99.90
58339;DHT22;48278;52.704;6.536;2022-10-04T22:01:50;15.20;99.90
58339;DHT22;48278;52.704;6.536;2022-10-04T22:04:16;15.20;99.90
58339;DHT22;48278;52.704;6.536;2022-10-04T22:06:42;15.20;99.90
58339;DHT22;48278;52.704;6.536;2022-10-04T22:09:08;15.20;99.90
58339;DHT22;48278;52.704;6.536;2022-10-04T22:11:34;15.20;99.90
58339;DHT22;48278;52.704;6.536;2022-10-04T22:14:01;15.20;99.90
58339;DHT22;48278;52.704;6.536;2022-10-04T22:16:26;15.30;99.90
58339;DHT22;48278;52.704;6.536;2022-10-04T22:18:52;15.30;99.90
58339;DHT22;48278;52.704;6.536;2022-10-04T22:21:18;15.20;99.90
58339;DHT22;48278;52.704;6.536;2022-10-04T22:23:44;15.20;99.90
58339;DHT22;48278;52.704;6.536;2022-10-04T22:26:18;15.20;99.90
58339;DHT22;48278;52.704;6.536;2022-10-04T22:28:47;15.30;99.90
58339;DHT22;48278;52.704;6.536;2022-10-04T22:31:19;15.20;99.90
58339;DHT22;48278;52.704;6.536;2022-10-04T22:33:46;15.20;99.90
58339;DHT22;48278;52.704;6.536;2022-10-04T22:36:30;15.20;99.90
58339;DHT22;48278;52.704;6.536;2022-10-04T22:38:58;15.30;99.90
58339;DHT22;48278;52.704;6.536;2022-10-04T22:41:30;15.20;99.90
58339;DHT22;48278;52.704;6.536;2022-10-04T22:43:59;15.20;99.90
58339;DHT22;48278;52.704;6.536;2022-10-04T22:46:32;15.20;99.90
58339;DHT22;48278;52.704;6.536;2022-10-04T22:49:01;15.00;99.90
58339;DHT22;48278;52.704;6.536;2022-10-04T22:51:37;15.20;99.90
58339;DHT22;48278;52.704;6.536;2022-10-04T22:54:10;15.20;99.90
58339;DHT22;48278;52.704;6.536;2022-10-04T22:56:36;15.20;99.90
58339;DHT22;48278;52.704;6.536;2022-10-04T22:59:02;15.20;99.90
58339;DHT22;48278;52.704;6.536;2022-10-04T23:01:27;15.30;99.90
58339;DHT22;48278;52.704;6.536;2022-10-04T23:03:55;15.20;99.90
58339;DHT22;48278;52.704;6.536;2022-10-04T23:06:22;15.30;99.90
58339;DHT22;48278;52.704;6.536;2022-10-04T23:08:47;15.30;99.90
58339;DHT22;48278;52.704;6.536;2022-10-04T23:11:14;15.30;99.90
58339;DHT22;48278;52.704;6.536;2022-10-04T23:13:40;15.30;99.90
58339;DHT22;48278;52.704;6.536;2022-10-04T23:16:12;15.30;99.90
58339;DHT22;48278;52.704;6.536;2022-10-04T23:18:39;15.30;99.90
58339;DHT22;48278;52.704;6.536;2022-10-04T23:21:21;15.30;99.90
58339;DHT22;48278;52.704;6.536;2022-10-04T23:23:48;15.30;99.90
58339;DHT22;48278;52.704;6.536;2022-10-04T23:26:35;15.30;99.90
58339;DHT22;48278;52.704;6.536;2022-10-04T23:29:05;15.30;99.90
58339;DHT22;48278;52.704;6.536;2022-10-04T23:31:31;15.30;99.90
58339;DHT22;48278;52.704;6.536;2022-10-04T23:33:58;15.30;99.90
58339;DHT22;48278;52.704;6.536;2022-10-04T23:36:25;15.30;99.90
58339;DHT22;48278;52.704;6.536;2022-10-04T23:38:57;15.30;99.90
58339;DHT22;48278;52.704;6.536;2022-10-04T23:41:24;15.30;99.90
58339;DHT22;48278;52.704;6.536;2022-10-04T23:43:50;15.30;99.90
58339;DHT22;48278;52.704;6.536;2022-10-04T23:46:18;15.20;99.90
58339;DHT22;48278;52.704;6.536;2022-10-04T23:48:46;15.20;99.90
58339;DHT22;48278;52.704;6.536;2022-10-04T23:51:15;15.30;99.90
58339;DHT22;48278;52.704;6.536;2022-10-04T23:53:44;15.20;99.90
58339;DHT22;48278;52.704;6.536;2022-10-04T23:56:31;15.20;99.90
58339;DHT22;48278;52.704;6.536;2022-10-04T23:58:57;15.20;99.90
